sensor_id;sensor_type;location;lat;lon;timestamp;P1;durP1;ratioP1;P2;durP2;ratioP2
54464;SDS011;40374;49.480;20.016;2022-07-25T00:01:48;9.98;;;5.68;;
54464;SDS011;40374;49.480;20.016;2022-07-25T00:04:16;7.35;;;5.90;;
54464;SDS011;40374;49.480;20.016;2022-07-25T00:06:44;9.23;;;6.35;;
54464;SDS011;40374;49.480;20.016;2022-07-25T00:09:12;8.73;;;6.13;;
54464;SDS011;40374;49.480;20.016;2022-07-25T00:11:39;18.95;;;7.35;;
54464;SDS011;40374;49.480;20.016;2022-07-25T00:14:06;9.43;;;6.45;;
54464;SDS011;40374;49.480;20.016;2022-07-25T00:16:34;8.23;;;6.70;;
54464;SDS011;40374;49.480;20.016;2022-07-25T00:19:02;9.23;;;6.55;;
54464;SDS011;40374;49.480;20.016;2022-07-25T00:21:29;9.80;;;7.00;;
54464;SDS011;40374;49.480;20.016;2022-07-25T00:23:57;9.07;;;6.85;;
54464;SDS011;40374;49.480;20.016;2022-07-25T00:26:24;12.63;;;7.93;;
54464;SDS011;40374;49.480;20.016;2022-07-25T00:28:51;14.40;;;8.57;;
54464;SDS011;40374;49.480;20.016;2022-07-25T00:31:19;16.55;;;8.90;;
54464;SDS011;40374;49.480;20.016;2022-07-25T00:33:46;16.80;;;9.95;;
54464;SDS011;40374;49.480;20.016;2022-07-25T00:36:13;14.52;;;10.18;;
54464;SDS011;40374;49.480;20.016;2022-07-25T00:38:41;16.92;;;9.30;;
54464;SDS011;40374;49.480;20.016;2022-07-25T00:41:08;15.98;;;9.68;;
54464;SDS011;40374;49.480;20.016;2022-07-25T00:43:35;18.27;;;10.63;;
54464;SDS011;40374;49.480;20.016;2022-07-25T00:46:03;18.70;;;10.88;;
54464;SDS011;40374;49.480;20.016;2022-07-25T00:48:30;18.75;;;9.98;;
54464;SDS011;40374;49.480;20.016;2022-07-25T00:50:57;14.13;;;10.20;;
54464;SDS011;40374;49.480;20.016;2022-07-25T00:53:25;19.77;;;10.90;;
54464;SDS011;40374;49.480;20.016;2022-07-25T00:55:54;22.08;;;11.82;;
54464;SDS011;40374;49.480;20.016;2022-07-25T00:58:21;16.55;;;11.82;;
54464;SDS011;40374;49.480;20.016;2022-07-25T01:00:49;19.08;;;11.52;;
54464;SDS011;40374;49.480;20.016;2022-07-25T01:03:16;17.88;;;9.10;;
54464;SDS011;40374;49.480;20.016;2022-07-25T01:05:43;12.93;;;8.55;;
54464;SDS011;40374;49.480;20.016;2022-07-25T01:08:17;10.93;;;6.88;;
54464;SDS011;40374;49.480;20.016;2022-07-25T01:10:45;11.70;;;7.53;;
54464;SDS011;40374;49.480;20.016;2022-07-25T01:13:12;9.07;;;6.70;;
54464;SDS011;40374;49.480;20.016;2022-07-25T01:15:41;9.10;;;5.95;;
54464;SDS011;40374;49.480;20.016;2022-07-25T01:18:08;9.68;;;6.97;;
54464;SDS011;40374;49.480;20.016;2022-07-25T01:20:35;11.25;;;8.02;;
54464;SDS011;40374;49.480;20.016;2022-07-25T01:23:03;14.88;;;9.55;;
54464;SDS011;40374;49.480;20.016;2022-07-25T01:25:30;16.05;;;10.85;;
54464;SDS011;40374;49.480;20.016;2022-07-25T01:27:57;15.02;;;10.05;;
54464;SDS011;40374;49.480;20.016;2022-07-25T01:30:25;17.67;;;10.57;;
54464;SDS011;40374;49.480;20.016;2022-07-25T01:32:52;13.52;;;9.18;;
54464;SDS011;40374;49.480;20.016;2022-07-25T01:35:19;15.85;;;8.88;;
54464;SDS011;40374;49.480;20.016;2022-07-25T01:37:47;14.63;;;8.55;;
54464;SDS011;40374;49.480;20.016;2022-07-25T01:40:14;14.57;;;8.57;;
54464;SDS011;40374;49.480;20.016;2022-07-25T01:42:42;10.75;;;7.88;;
54464;SDS011;40374;49.480;20.016;2022-07-25T01:45:09;7.80;;;6.07;;
54464;SDS011;40374;49.480;20.016;2022-07-25T01:47:37;11.52;;;7.10;;
54464;SDS011;40374;49.480;20.016;2022-07-25T01:50:04;7.03;;;5.82;;
54464;SDS011;40374;49.480;20.016;2022-07-25T01:52:32;8.10;;;6.53;;
54464;SDS011;40374;49.480;20.016;2022-07-25T01:54:59;7.88;;;6.22;;
54464;SDS011;40374;49.480;20.016;2022-07-25T01:57:26;13.38;;;8.05;;
54464;SDS011;40374;49.480;20.016;2022-07-25T01:59:57;13.05;;;7.18;;
54464;SDS011;40374;49.480;20.016;2022-07-25T02:02:25;12.02;;;8.35;;
54464;SDS011;40374;49.480;20.016;2022-07-25T02:04:52;12.60;;;9.25;;
54464;SDS011;40374;49.480;20.016;2022-07-25T02:07:20;16.55;;;9.75;;
54464;SDS011;40374;49.480;20.016;2022-07-25T02:09:47;15.18;;;11.10;;
54464;SDS011;40374;49.480;20.016;2022-07-25T02:12:22;13.73;;;10.00;;
54464;SDS011;40374;49.480;20.016;2022-07-25T02:14:49;18.65;;;11.68;;
54464;SDS011;40374;49.480;20.016;2022-07-25T02:17:16;21.67;;;13.30;;
54464;SDS011;40374;49.480;20.016;2022-07-25T02:19:44;18.30;;;12.13;;
54464;SDS011;40374;49.480;20.016;2022-07-25T02:22:11;20.67;;;12.55;;
54464;SDS011;40374;49.480;20.016;2022-07-25T02:24:39;15.75;;;11.63;;
54464;SDS011;40374;49.480;20.016;2022-07-25T02:27:07;20.58;;;11.38;;
54464;SDS011;40374;49.480;20.016;2022-07-25T02:29:34;17.48;;;10.88;;
54464;SDS011;40374;49.480;20.016;2022-07-25T02:32:01;22.80;;;12.63;;
54464;SDS011;40374;49.480;20.016;2022-07-25T02:34:29;29.30;;;10.73;;
54464;SDS011;40374;49.480;20.016;2022-07-25T02:36:56;10.43;;;7.88;;
54464;SDS011;40374;49.480;20.016;2022-07-25T02:39:23;11.70;;;8.55;;
54464;SDS011;40374;49.480;20.016;2022-07-25T02:41:51;10.75;;;7.93;;
54464;SDS011;40374;49.480;20.016;2022-07-25T02:44:18;10.38;;;7.28;;
54464;SDS011;40374;49.480;20.016;2022-07-25T02:46:45;12.18;;;6.78;;
54464;SDS011;40374;49.480;20.016;2022-07-25T02:49:13;5.82;;;4.55;;
54464;SDS011;40374;49.480;20.016;2022-07-25T02:51:40;6.18;;;4.65;;
54464;SDS011;40374;49.480;20.016;2022-07-25T02:54:07;8.85;;;5.15;;
54464;SDS011;40374;49.480;20.016;2022-07-25T02:56:35;6.03;;;4.35;;
54464;SDS011;40374;49.480;20.016;2022-07-25T02:59:02;7.05;;;5.35;;
54464;SDS011;40374;49.480;20.016;2022-07-25T03:01:30;9.02;;;5.25;;
54464;SDS011;40374;49.480;20.016;2022-07-25T03:03:57;7.82;;;6.45;;
54464;SDS011;40374;49.480;20.016;2022-07-25T03:06:25;11.05;;;8.48;;
54464;SDS011;40374;49.480;20.016;2022-07-25T03:08:52;9.02;;;7.30;;
54464;SDS011;40374;49.480;20.016;2022-07-25T03:11:20;11.18;;;7.55;;
54464;SDS011;40374;49.480;20.016;2022-07-25T03:13:47;13.93;;;7.03;;
54464;SDS011;40374;49.480;20.016;2022-07-25T03:16:14;13.60;;;9.20;;
54464;SDS011;40374;49.480;20.016;2022-07-25T03:18:42;14.85;;;10.20;;
54464;SDS011;40374;49.480;20.016;2022-07-25T03:21:09;13.45;;;9.52;;
54464;SDS011;40374;49.480;20.016;2022-07-25T03:23:36;17.17;;;10.23;;
54464;SDS011;40374;49.480;20.016;2022-07-25T03:26:04;13.48;;;9.05;;
54464;SDS011;40374;49.480;20.016;2022-07-25T03:28:32;13.02;;;9.63;;
54464;SDS011;40374;49.480;20.016;2022-07-25T03:30:59;13.93;;;10.07;;
54464;SDS011;40374;49.480;20.016;2022-07-25T03:33:26;17.95;;;12.18;;
54464;SDS011;40374;49.480;20.016;2022-07-25T03:35:54;18.90;;;12.02;;
54464;SDS011;40374;49.480;20.016;2022-07-25T03:38:22;18.52;;;11.18;;
54464;SDS011;40374;49.480;20.016;2022-07-25T03:40:50;19.13;;;12.65;;
54464;SDS011;40374;49.480;20.016;2022-07-25T03:43:18;17.60;;;11.30;;
54464;SDS011;40374;49.480;20.016;2022-07-25T03:45:45;18.38;;;11.68;;
54464;SDS011;40374;49.480;20.016;2022-07-25T03:48:13;17.30;;;11.93;;
54464;SDS011;40374;49.480;20.016;2022-07-25T03:50:40;18.08;;;11.40;;
54464;SDS011;40374;49.480;20.016;2022-07-25T03:53:07;16.90;;;11.02;;
54464;SDS011;40374;49.480;20.016;2022-07-25T03:55:36;19.15;;;12.80;;
54464;SDS011;40374;49.480;20.016;2022-07-25T03:58:05;16.35;;;11.13;;
54464;SDS011;40374;49.480;20.016;2022-07-25T04:00:33;17.67;;;10.32;;
54464;SDS011;40374;49.480;20.016;2022-07-25T04:03:00;22.23;;;11.57;;
54464;SDS011;40374;49.480;20.016;2022-07-25T04:05:28;17.58;;;11.35;;
54464;SDS011;40374;49.480;20.016;2022-07-25T04:07:55;18.33;;;11.13;;
54464;SDS011;40374;49.480;20.016;2022-07-25T04:10:23;21.38;;;11.43;;
54464;SDS011;40374;49.480;20.016;2022-07-25T04:12:50;22.23;;;12.95;;
54464;SDS011;40374;49.480;20.016;2022-07-25T04:15:18;13.93;;;10.52;;
54464;SDS011;40374;49.480;20.016;2022-07-25T04:17:45;15.73;;;11.23;;
54464;SDS011;40374;49.480;20.016;2022-07-25T04:20:12;19.42;;;13.45;;
54464;SDS011;40374;49.480;20.016;2022-07-25T04:22:39;19.23;;;13.02;;
54464;SDS011;40374;49.480;20.016;2022-07-25T04:25:12;20.48;;;11.77;;
54464;SDS011;40374;49.480;20.016;2022-07-25T04:27:40;17.75;;;10.98;;
54464;SDS011;40374;49.480;20.016;2022-07-25T04:30:07;15.95;;;11.50;;
54464;SDS011;40374;49.480;20.016;2022-07-25T04:32:35;20.70;;;11.13;;
54464;SDS011;40374;49.480;20.016;2022-07-25T04:35:02;17.70;;;11.13;;
54464;SDS011;40374;49.480;20.016;2022-07-25T04:37:29;26.15;;;14.90;;
54464;SDS011;40374;49.480;20.016;2022-07-25T04:39:57;21.45;;;11.20;;
54464;SDS011;40374;49.480;20.016;2022-07-25T04:42:24;14.05;;;9.40;;
54464;SDS011;40374;49.480;20.016;2022-07-25T04:44:51;14.68;;;10.25;;
54464;SDS011;40374;49.480;20.016;2022-07-25T04:47:18;15.35;;;9.10;;
54464;SDS011;40374;49.480;20.016;2022-07-25T04:49:46;10.95;;;8.43;;
54464;SDS011;40374;49.480;20.016;2022-07-25T04:52:13;9.05;;;8.05;;
54464;SDS011;40374;49.480;20.016;2022-07-25T04:54:41;17.20;;;9.70;;
54464;SDS011;40374;49.480;20.016;2022-07-25T04:57:08;13.73;;;8.30;;
54464;SDS011;40374;49.480;20.016;2022-07-25T04:59:35;13.38;;;8.63;;
54464;SDS011;40374;49.480;20.016;2022-07-25T05:02:03;17.52;;;9.88;;
54464;SDS011;40374;49.480;20.016;2022-07-25T05:04:30;25.52;;;12.05;;
54464;SDS011;40374;49.480;20.016;2022-07-25T05:07:00;16.33;;;9.77;;
54464;SDS011;40374;49.480;20.016;2022-07-25T05:09:28;16.92;;;10.48;;
54464;SDS011;40374;49.480;20.016;2022-07-25T05:11:55;15.65;;;10.13;;
54464;SDS011;40374;49.480;20.016;2022-07-25T05:14:22;19.95;;;10.65;;
54464;SDS011;40374;49.480;20.016;2022-07-25T05:16:50;19.10;;;10.57;;
54464;SDS011;40374;49.480;20.016;2022-07-25T05:19:17;11.80;;;9.35;;
54464;SDS011;40374;49.480;20.016;2022-07-25T05:21:44;20.23;;;11.70;;
54464;SDS011;40374;49.480;20.016;2022-07-25T05:24:12;21.65;;;11.68;;
54464;SDS011;40374;49.480;20.016;2022-07-25T05:26:39;27.00;;;12.30;;
54464;SDS011;40374;49.480;20.016;2022-07-25T05:29:06;14.32;;;10.43;;
54464;SDS011;40374;49.480;20.016;2022-07-25T05:31:34;17.75;;;10.18;;
54464;SDS011;40374;49.480;20.016;2022-07-25T05:34:04;18.00;;;11.68;;
54464;SDS011;40374;49.480;20.016;2022-07-25T05:36:31;26.15;;;11.68;;
54464;SDS011;40374;49.480;20.016;2022-07-25T05:38:59;28.77;;;12.60;;
54464;SDS011;40374;49.480;20.016;2022-07-25T05:41:26;17.52;;;12.35;;
54464;SDS011;40374;49.480;20.016;2022-07-25T05:43:54;26.60;;;13.38;;
54464;SDS011;40374;49.480;20.016;2022-07-25T05:46:21;22.02;;;12.23;;
54464;SDS011;40374;49.480;20.016;2022-07-25T05:48:51;17.08;;;11.35;;
54464;SDS011;40374;49.480;20.016;2022-07-25T05:51:18;15.30;;;10.23;;
54464;SDS011;40374;49.480;20.016;2022-07-25T05:53:46;13.93;;;9.52;;
54464;SDS011;40374;49.480;20.016;2022-07-25T05:56:13;17.33;;;10.55;;
54464;SDS011;40374;49.480;20.016;2022-07-25T05:58:40;21.35;;;9.93;;
54464;SDS011;40374;49.480;20.016;2022-07-25T06:01:12;27.35;;;11.40;;
54464;SDS011;40374;49.480;20.016;2022-07-25T06:03:39;16.25;;;10.43;;
54464;SDS011;40374;49.480;20.016;2022-07-25T06:06:07;20.35;;;10.88;;
54464;SDS011;40374;49.480;20.016;2022-07-25T06:08:35;18.23;;;10.75;;
54464;SDS011;40374;49.480;20.016;2022-07-25T06:11:03;17.00;;;10.18;;
54464;SDS011;40374;49.480;20.016;2022-07-25T06:13:31;17.25;;;9.40;;
54464;SDS011;40374;49.480;20.016;2022-07-25T06:16:00;15.75;;;9.55;;
54464;SDS011;40374;49.480;20.016;2022-07-25T06:18:27;20.02;;;10.82;;
54464;SDS011;40374;49.480;20.016;2022-07-25T06:20:55;15.38;;;9.95;;
54464;SDS011;40374;49.480;20.016;2022-07-25T06:23:22;19.85;;;9.70;;
54464;SDS011;40374;49.480;20.016;2022-07-25T06:25:53;16.85;;;10.55;;
54464;SDS011;40374;49.480;20.016;2022-07-25T06:28:20;14.48;;;10.05;;
54464;SDS011;40374;49.480;20.016;2022-07-25T06:30:48;19.35;;;11.25;;
54464;SDS011;40374;49.480;20.016;2022-07-25T06:33:15;17.10;;;9.52;;
54464;SDS011;40374;49.480;20.016;2022-07-25T06:35:42;24.13;;;9.98;;
54464;SDS011;40374;49.480;20.016;2022-07-25T06:38:10;18.77;;;9.98;;
54464;SDS011;40374;49.480;20.016;2022-07-25T06:40:37;21.52;;;10.35;;
54464;SDS011;40374;49.480;20.016;2022-07-25T06:43:04;22.90;;;9.70;;
54464;SDS011;40374;49.480;20.016;2022-07-25T06:45:32;14.30;;;9.00;;
54464;SDS011;40374;49.480;20.016;2022-07-25T06:47:59;13.90;;;8.98;;
54464;SDS011;40374;49.480;20.016;2022-07-25T06:50:26;14.68;;;8.48;;
54464;SDS011;40374;49.480;20.016;2022-07-25T06:52:54;13.90;;;8.55;;
54464;SDS011;40374;49.480;20.016;2022-07-25T06:55:21;21.98;;;8.82;;
54464;SDS011;40374;49.480;20.016;2022-07-25T06:57:48;16.65;;;8.93;;
54464;SDS011;40374;49.480;20.016;2022-07-25T07:00:16;13.18;;;8.35;;
54464;SDS011;40374;49.480;20.016;2022-07-25T07:05:14;10.88;;;7.47;;
54464;SDS011;40374;49.480;20.016;2022-07-25T07:07:41;13.15;;;8.00;;
54464;SDS011;40374;49.480;20.016;2022-07-25T07:10:14;12.27;;;7.95;;
54464;SDS011;40374;49.480;20.016;2022-07-25T07:12:41;15.27;;;7.95;;
54464;SDS011;40374;49.480;20.016;2022-07-25T07:15:13;17.00;;;7.97;;
54464;SDS011;40374;49.480;20.016;2022-07-25T07:17:40;13.70;;;7.72;;
54464;SDS011;40374;49.480;20.016;2022-07-25T07:20:08;16.40;;;6.88;;
54464;SDS011;40374;49.480;20.016;2022-07-25T07:22:43;13.20;;;7.20;;
54464;SDS011;40374;49.480;20.016;2022-07-25T07:25:11;14.75;;;6.93;;
54464;SDS011;40374;49.480;20.016;2022-07-25T07:27:40;14.25;;;6.68;;
54464;SDS011;40374;49.480;20.016;2022-07-25T07:30:08;12.70;;;7.10;;
54464;SDS011;40374;49.480;20.016;2022-07-25T07:32:35;9.52;;;6.40;;
54464;SDS011;40374;49.480;20.016;2022-07-25T07:35:03;10.90;;;6.70;;
54464;SDS011;40374;49.480;20.016;2022-07-25T07:37:30;13.15;;;7.20;;
54464;SDS011;40374;49.480;20.016;2022-07-25T07:40:06;13.43;;;6.25;;
54464;SDS011;40374;49.480;20.016;2022-07-25T07:42:43;12.27;;;5.93;;
54464;SDS011;40374;49.480;20.016;2022-07-25T07:47:38;8.48;;;5.32;;
54464;SDS011;40374;49.480;20.016;2022-07-25T07:50:06;12.40;;;5.55;;
54464;SDS011;40374;49.480;20.016;2022-07-25T07:52:34;9.50;;;5.35;;
54464;SDS011;40374;49.480;20.016;2022-07-25T07:55:01;11.43;;;5.20;;
54464;SDS011;40374;49.480;20.016;2022-07-25T07:57:48;7.40;;;3.80;;
54464;SDS011;40374;49.480;20.016;2022-07-25T08:00:16;5.18;;;3.28;;
54464;SDS011;40374;49.480;20.016;2022-07-25T08:02:44;6.13;;;3.15;;
54464;SDS011;40374;49.480;20.016;2022-07-25T08:05:13;5.65;;;3.22;;
54464;SDS011;40374;49.480;20.016;2022-07-25T08:07:45;6.68;;;3.17;;
54464;SDS011;40374;49.480;20.016;2022-07-25T08:10:12;9.23;;;2.80;;
54464;SDS011;40374;49.480;20.016;2022-07-25T08:12:40;3.95;;;2.45;;
54464;SDS011;40374;49.480;20.016;2022-07-25T08:15:08;3.45;;;2.15;;
54464;SDS011;40374;49.480;20.016;2022-07-25T08:17:35;4.15;;;2.10;;
54464;SDS011;40374;49.480;20.016;2022-07-25T08:20:03;4.47;;;2.75;;
54464;SDS011;40374;49.480;20.016;2022-07-25T08:22:54;4.30;;;2.13;;
54464;SDS011;40374;49.480;20.016;2022-07-25T08:25:22;13.30;;;2.63;;
54464;SDS011;40374;49.480;20.016;2022-07-25T08:27:50;4.60;;;2.40;;
54464;SDS011;40374;49.480;20.016;2022-07-25T08:30:19;3.75;;;2.40;;
54464;SDS011;40374;49.480;20.016;2022-07-25T08:32:50;6.15;;;2.58;;
54464;SDS011;40374;49.480;20.016;2022-07-25T08:35:18;13.43;;;2.60;;
54464;SDS011;40374;49.480;20.016;2022-07-25T08:37:46;7.25;;;2.20;;
54464;SDS011;40374;49.480;20.016;2022-07-25T08:40:14;5.03;;;3.05;;
54464;SDS011;40374;49.480;20.016;2022-07-25T08:42:41;3.53;;;2.53;;
54464;SDS011;40374;49.480;20.016;2022-07-25T08:45:10;3.30;;;2.55;;
54464;SDS011;40374;49.480;20.016;2022-07-25T08:47:39;6.15;;;2.10;;
54464;SDS011;40374;49.480;20.016;2022-07-25T08:50:08;7.15;;;2.22;;
54464;SDS011;40374;49.480;20.016;2022-07-25T08:52:35;10.50;;;3.03;;
54464;SDS011;40374;49.480;20.016;2022-07-25T08:55:04;2.00;;;1.83;;
54464;SDS011;40374;49.480;20.016;2022-07-25T08:57:32;2.38;;;2.17;;
54464;SDS011;40374;49.480;20.016;2022-07-25T08:59:59;4.25;;;1.88;;
54464;SDS011;40374;49.480;20.016;2022-07-25T09:02:27;3.80;;;2.25;;
54464;SDS011;40374;49.480;20.016;2022-07-25T09:04:55;2.25;;;2.00;;
54464;SDS011;40374;49.480;20.016;2022-07-25T09:07:39;6.93;;;1.90;;
54464;SDS011;40374;49.480;20.016;2022-07-25T09:10:21;2.80;;;1.95;;
54464;SDS011;40374;49.480;20.016;2022-07-25T09:15:27;5.38;;;2.28;;
54464;SDS011;40374;49.480;20.016;2022-07-25T09:17:56;9.82;;;2.20;;
54464;SDS011;40374;49.480;20.016;2022-07-25T09:23:29;3.63;;;1.73;;
54464;SDS011;40374;49.480;20.016;2022-07-25T09:26:03;4.47;;;2.10;;
54464;SDS011;40374;49.480;20.016;2022-07-25T09:28:31;2.47;;;2.13;;
54464;SDS011;40374;49.480;20.016;2022-07-25T09:31:00;7.10;;;1.65;;
54464;SDS011;40374;49.480;20.016;2022-07-25T09:33:27;4.45;;;2.38;;
54464;SDS011;40374;49.480;20.016;2022-07-25T09:35:55;3.13;;;1.90;;
54464;SDS011;40374;49.480;20.016;2022-07-25T09:38:23;6.78;;;1.83;;
54464;SDS011;40374;49.480;20.016;2022-07-25T09:40:54;3.28;;;1.45;;
54464;SDS011;40374;49.480;20.016;2022-07-25T09:43:22;7.63;;;1.88;;
54464;SDS011;40374;49.480;20.016;2022-07-25T09:45:50;5.25;;;2.35;;
54464;SDS011;40374;49.480;20.016;2022-07-25T09:48:18;2.33;;;2.00;;
54464;SDS011;40374;49.480;20.016;2022-07-25T09:50:46;4.47;;;1.80;;
54464;SDS011;40374;49.480;20.016;2022-07-25T09:53:14;4.55;;;2.15;;
54464;SDS011;40374;49.480;20.016;2022-07-25T09:55:41;1.80;;;1.40;;
54464;SDS011;40374;49.480;20.016;2022-07-25T09:58:09;3.33;;;1.33;;
54464;SDS011;40374;49.480;20.016;2022-07-25T10:00:38;6.35;;;1.55;;
54464;SDS011;40374;49.480;20.016;2022-07-25T10:06:12;2.40;;;1.50;;
54464;SDS011;40374;49.480;20.016;2022-07-25T10:08:37;2.63;;;1.40;;
54464;SDS011;40374;49.480;20.016;2022-07-25T10:11:05;6.68;;;1.65;;
54464;SDS011;40374;49.480;20.016;2022-07-25T10:13:43;12.77;;;1.52;;
54464;SDS011;40374;49.480;20.016;2022-07-25T10:16:24;9.32;;;1.70;;
54464;SDS011;40374;49.480;20.016;2022-07-25T10:18:55;1.35;;;1.23;;
54464;SDS011;40374;49.480;20.016;2022-07-25T10:21:24;7.32;;;1.60;;
54464;SDS011;40374;49.480;20.016;2022-07-25T10:26:24;2.70;;;1.58;;
54464;SDS011;40374;49.480;20.016;2022-07-25T10:28:52;4.45;;;1.27;;
54464;SDS011;40374;49.480;20.016;2022-07-25T10:31:21;3.05;;;1.15;;
54464;SDS011;40374;49.480;20.016;2022-07-25T10:33:51;3.80;;;1.08;;
54464;SDS011;40374;49.480;20.016;2022-07-25T10:36:19;2.92;;;1.13;;
54464;SDS011;40374;49.480;20.016;2022-07-25T10:38:49;2.95;;;1.48;;
54464;SDS011;40374;49.480;20.016;2022-07-25T10:41:17;2.45;;;1.17;;
54464;SDS011;40374;49.480;20.016;2022-07-25T10:43:44;1.23;;;1.10;;
54464;SDS011;40374;49.480;20.016;2022-07-25T10:46:18;0.98;;;0.90;;
54464;SDS011;40374;49.480;20.016;2022-07-25T10:48:55;1.90;;;0.90;;
54464;SDS011;40374;49.480;20.016;2022-07-25T10:51:33;1.35;;;0.95;;
54464;SDS011;40374;49.480;20.016;2022-07-25T10:54:14;3.45;;;0.93;;
54464;SDS011;40374;49.480;20.016;2022-07-25T10:56:50;3.97;;;1.00;;
54464;SDS011;40374;49.480;20.016;2022-07-25T10:59:27;2.92;;;0.93;;
54464;SDS011;40374;49.480;20.016;2022-07-25T11:01:55;0.80;;;0.80;;
54464;SDS011;40374;49.480;20.016;2022-07-25T11:04:23;1.65;;;0.77;;
54464;SDS011;40374;49.480;20.016;2022-07-25T11:06:50;1.60;;;0.98;;
54464;SDS011;40374;49.480;20.016;2022-07-25T11:09:25;4.07;;;0.80;;
54464;SDS011;40374;49.480;20.016;2022-07-25T11:11:55;4.22;;;0.77;;
54464;SDS011;40374;49.480;20.016;2022-07-25T11:14:24;2.45;;;0.70;;
54464;SDS011;40374;49.480;20.016;2022-07-25T11:16:52;1.30;;;0.60;;
54464;SDS011;40374;49.480;20.016;2022-07-25T11:19:22;3.05;;;1.05;;
54464;SDS011;40374;49.480;20.016;2022-07-25T11:21:50;0.77;;;0.77;;
54464;SDS011;40374;49.480;20.016;2022-07-25T11:24:18;0.80;;;0.80;;
54464;SDS011;40374;49.480;20.016;2022-07-25T11:26:47;0.77;;;0.77;;
54464;SDS011;40374;49.480;20.016;2022-07-25T11:29:18;1.38;;;1.00;;
54464;SDS011;40374;49.480;20.016;2022-07-25T11:36:49;1.15;;;0.95;;
54464;SDS011;40374;49.480;20.016;2022-07-25T11:39:17;3.60;;;0.90;;
54464;SDS011;40374;49.480;20.016;2022-07-25T11:41:45;1.10;;;1.00;;
54464;SDS011;40374;49.480;20.016;2022-07-25T11:44:13;0.65;;;0.60;;
54464;SDS011;40374;49.480;20.016;2022-07-25T11:46:41;0.90;;;0.90;;
54464;SDS011;40374;49.480;20.016;2022-07-25T11:49:09;5.10;;;0.75;;
54464;SDS011;40374;49.480;20.016;2022-07-25T11:51:37;2.45;;;0.80;;
54464;SDS011;40374;49.480;20.016;2022-07-25T11:54:08;1.20;;;1.10;;
54464;SDS011;40374;49.480;20.016;2022-07-25T11:56:37;1.35;;;0.90;;
54464;SDS011;40374;49.480;20.016;2022-07-25T11:59:09;1.08;;;1.08;;
54464;SDS011;40374;49.480;20.016;2022-07-25T12:01:38;2.90;;;0.82;;
54464;SDS011;40374;49.480;20.016;2022-07-25T12:04:10;1.00;;;0.88;;
54464;SDS011;40374;49.480;20.016;2022-07-25T12:06:38;1.05;;;0.80;;
54464;SDS011;40374;49.480;20.016;2022-07-25T12:09:09;1.25;;;1.15;;
54464;SDS011;40374;49.480;20.016;2022-07-25T12:11:44;0.85;;;0.85;;
54464;SDS011;40374;49.480;20.016;2022-07-25T12:14:12;0.65;;;0.65;;
54464;SDS011;40374;49.480;20.016;2022-07-25T12:16:39;19.80;;;1.75;;
54464;SDS011;40374;49.480;20.016;2022-07-25T12:19:08;65.75;;;3.42;;
54464;SDS011;40374;49.480;20.016;2022-07-25T12:21:36;3.00;;;0.75;;
54464;SDS011;40374;49.480;20.016;2022-07-25T12:24:03;9.90;;;1.17;;
54464;SDS011;40374;49.480;20.016;2022-07-25T12:26:31;1.15;;;0.93;;
54464;SDS011;40374;49.480;20.016;2022-07-25T12:28:58;0.80;;;0.80;;
54464;SDS011;40374;49.480;20.016;2022-07-25T12:31:26;0.90;;;0.77;;
54464;SDS011;40374;49.480;20.016;2022-07-25T12:33:54;2.40;;;0.98;;
54464;SDS011;40374;49.480;20.016;2022-07-25T12:36:22;0.80;;;0.80;;
54464;SDS011;40374;49.480;20.016;2022-07-25T12:38:49;13.38;;;1.23;;
54464;SDS011;40374;49.480;20.016;2022-07-25T12:41:16;2.25;;;0.90;;
54464;SDS011;40374;49.480;20.016;2022-07-25T12:43:48;2.60;;;0.77;;
54464;SDS011;40374;49.480;20.016;2022-07-25T12:46:15;22.88;;;1.73;;
54464;SDS011;40374;49.480;20.016;2022-07-25T12:48:43;0.85;;;0.85;;
54464;SDS011;40374;49.480;20.016;2022-07-25T12:51:11;3.90;;;1.05;;
54464;SDS011;40374;49.480;20.016;2022-07-25T12:53:38;5.05;;;1.23;;
54464;SDS011;40374;49.480;20.016;2022-07-25T12:56:08;2.15;;;0.90;;
54464;SDS011;40374;49.480;20.016;2022-07-25T12:58:35;0.95;;;0.70;;
54464;SDS011;40374;49.480;20.016;2022-07-25T13:01:03;6.10;;;0.90;;
54464;SDS011;40374;49.480;20.016;2022-07-25T13:03:32;2.03;;;0.93;;
54464;SDS011;40374;49.480;20.016;2022-07-25T13:05:59;3.13;;;0.90;;
54464;SDS011;40374;49.480;20.016;2022-07-25T13:08:26;0.73;;;0.70;;
54464;SDS011;40374;49.480;20.016;2022-07-25T13:10:54;4.57;;;0.90;;
54464;SDS011;40374;49.480;20.016;2022-07-25T13:13:21;0.80;;;0.80;;
54464;SDS011;40374;49.480;20.016;2022-07-25T13:15:49;0.80;;;0.80;;
54464;SDS011;40374;49.480;20.016;2022-07-25T13:18:16;1.75;;;0.98;;
54464;SDS011;40374;49.480;20.016;2022-07-25T13:20:44;0.82;;;0.80;;
54464;SDS011;40374;49.480;20.016;2022-07-25T13:23:11;0.80;;;0.80;;
54464;SDS011;40374;49.480;20.016;2022-07-25T13:25:44;0.80;;;0.80;;
54464;SDS011;40374;49.480;20.016;2022-07-25T13:28:12;2.80;;;0.80;;
54464;SDS011;40374;49.480;20.016;2022-07-25T13:30:39;1.10;;;0.82;;
54464;SDS011;40374;49.480;20.016;2022-07-25T13:33:07;0.68;;;0.68;;
54464;SDS011;40374;49.480;20.016;2022-07-25T13:35:36;0.70;;;0.70;;
54464;SDS011;40374;49.480;20.016;2022-07-25T13:38:07;2.40;;;0.80;;
54464;SDS011;40374;49.480;20.016;2022-07-25T13:40:35;0.90;;;0.65;;
54464;SDS011;40374;49.480;20.016;2022-07-25T13:43:07;0.70;;;0.68;;
54464;SDS011;40374;49.480;20.016;2022-07-25T13:45:35;0.88;;;0.85;;
54464;SDS011;40374;49.480;20.016;2022-07-25T13:48:03;1.00;;;0.90;;
54464;SDS011;40374;49.480;20.016;2022-07-25T13:50:50;1.10;;;1.10;;
54464;SDS011;40374;49.480;20.016;2022-07-25T13:53:18;2.75;;;0.95;;
54464;SDS011;40374;49.480;20.016;2022-07-25T13:55:45;3.67;;;1.00;;
54464;SDS011;40374;49.480;20.016;2022-07-25T13:58:13;3.40;;;0.90;;
54464;SDS011;40374;49.480;20.016;2022-07-25T14:00:42;0.82;;;0.82;;
54464;SDS011;40374;49.480;20.016;2022-07-25T14:03:10;2.63;;;0.80;;
54464;SDS011;40374;49.480;20.016;2022-07-25T14:05:37;1.73;;;1.63;;
54464;SDS011;40374;49.480;20.016;2022-07-25T14:08:05;1.40;;;0.88;;
54464;SDS011;40374;49.480;20.016;2022-07-25T14:10:33;1.45;;;0.90;;
54464;SDS011;40374;49.480;20.016;2022-07-25T14:13:00;0.95;;;0.80;;
54464;SDS011;40374;49.480;20.016;2022-07-25T14:15:28;3.95;;;2.90;;
54464;SDS011;40374;49.480;20.016;2022-07-25T14:17:57;1.33;;;1.08;;
54464;SDS011;40374;49.480;20.016;2022-07-25T14:20:25;1.00;;;1.00;;
54464;SDS011;40374;49.480;20.016;2022-07-25T14:22:52;1.08;;;0.98;;
54464;SDS011;40374;49.480;20.016;2022-07-25T14:25:19;12.88;;;1.27;;
54464;SDS011;40374;49.480;20.016;2022-07-25T14:27:46;1.17;;;0.90;;
54464;SDS011;40374;49.480;20.016;2022-07-25T14:30:14;1.98;;;1.10;;
54464;SDS011;40374;49.480;20.016;2022-07-25T14:32:42;0.80;;;0.80;;
54464;SDS011;40374;49.480;20.016;2022-07-25T14:35:09;0.80;;;0.80;;
54464;SDS011;40374;49.480;20.016;2022-07-25T14:37:37;0.80;;;0.80;;
54464;SDS011;40374;49.480;20.016;2022-07-25T14:40:05;0.88;;;0.88;;
54464;SDS011;40374;49.480;20.016;2022-07-25T14:42:32;0.95;;;0.80;;
54464;SDS011;40374;49.480;20.016;2022-07-25T14:45:00;2.00;;;1.00;;
54464;SDS011;40374;49.480;20.016;2022-07-25T14:47:27;1.58;;;1.02;;
54464;SDS011;40374;49.480;20.016;2022-07-25T14:49:54;1.20;;;1.10;;
54464;SDS011;40374;49.480;20.016;2022-07-25T14:52:21;3.13;;;0.90;;
54464;SDS011;40374;49.480;20.016;2022-07-25T14:54:49;3.15;;;1.00;;